Startpagina
METAR-TAF:

METAR-TAF

Vliegvelden :

Wittmund, Duitsland

breedte: 53-33N, lengte: 007-40E, hoogte: 8 m

Actueel weer

Dit bericht is 1 uur en het 2 minuten geleden gemaakt, om 06:20 UTC
Wind 9 kt uit het oostnoordoosten
Temperatuur 5°C
Vochtigheid 81%
Druk 1025 hPa
Zicht 10 km of meer
Weinig wolken op 3500 ft
Verspreide wolken op 13000 ft
Gebroken wolken op 24000 ft

METAR: ETNT 220620Z 07009KT 9999 FEW035 SCT130 BKN240 05/02 Q1025 BLACKBLU+

Tijdstip: 09:22 (07:22 UTC)


TAF: ontbreekt

Waarnemingen en weersverwachtingen van meer dan 4000 vliegvelden (METAR en TAF).

De beschikbare stations zijn de gele en rode punten op de kaart.

Ga met uw muis naar het station om de naam te zien.

Klik dan om waarnemingen en weersverwachtingen te zien.

kaart wijzigen: klik op de groene knoppen met een zwart kruis om in te zoomen, op de groene knop met een streepje om uit te zoomen of op de groene pijlen voor aangrenzende kaarten.


METAR-TAF: